sensor_id;sensor_type;location;lat;lon;timestamp;P1;durP1;ratioP1;P2;durP2;ratioP2
39190;SDS011;24916;51.676;6.614;2024-03-25T00:00:42;7.30;;;3.65;;
39190;SDS011;24916;51.676;6.614;2024-03-25T00:03:07;7.57;;;3.67;;
39190;SDS011;24916;51.676;6.614;2024-03-25T00:05:32;6.72;;;3.25;;
39190;SDS011;24916;51.676;6.614;2024-03-25T00:07:58;8.48;;;3.47;;
39190;SDS011;24916;51.676;6.614;2024-03-25T00:10:23;8.00;;;3.38;;
39190;SDS011;24916;51.676;6.614;2024-03-25T00:12:48;8.27;;;3.38;;
39190;SDS011;24916;51.676;6.614;2024-03-25T00:15:18;7.82;;;3.85;;
39190;SDS011;24916;51.676;6.614;2024-03-25T00:17:44;9.88;;;3.60;;
39190;SDS011;24916;51.676;6.614;2024-03-25T00:20:10;6.70;;;3.15;;
39190;SDS011;24916;51.676;6.614;2024-03-25T00:22:35;8.23;;;3.70;;
39190;SDS011;24916;51.676;6.614;2024-03-25T00:25:00;7.68;;;3.50;;
39190;SDS011;24916;51.676;6.614;2024-03-25T00:27:26;9.00;;;3.67;;
39190;SDS011;24916;51.676;6.614;2024-03-25T00:29:54;8.63;;;3.53;;
39190;SDS011;24916;51.676;6.614;2024-03-25T00:32:19;8.45;;;3.60;;
39190;SDS011;24916;51.676;6.614;2024-03-25T00:34:45;7.45;;;3.47;;
39190;SDS011;24916;51.676;6.614;2024-03-25T00:37:10;9.32;;;3.85;;
39190;SDS011;24916;51.676;6.614;2024-03-25T00:39:35;13.32;;;3.72;;
39190;SDS011;24916;51.676;6.614;2024-03-25T00:42:01;6.93;;;3.65;;
39190;SDS011;24916;51.676;6.614;2024-03-25T00:44:26;8.68;;;3.70;;
39190;SDS011;24916;51.676;6.614;2024-03-25T00:46:51;7.10;;;3.45;;
39190;SDS011;24916;51.676;6.614;2024-03-25T00:49:17;9.02;;;3.53;;
39190;SDS011;24916;51.676;6.614;2024-03-25T00:51:42;7.85;;;3.30;;
39190;SDS011;24916;51.676;6.614;2024-03-25T00:54:07;7.00;;;3.42;;
39190;SDS011;24916;51.676;6.614;2024-03-25T00:56:33;8.18;;;3.67;;
39190;SDS011;24916;51.676;6.614;2024-03-25T00:58:58;6.88;;;3.20;;
39190;SDS011;24916;51.676;6.614;2024-03-25T01:01:27;8.77;;;4.25;;
39190;SDS011;24916;51.676;6.614;2024-03-25T01:03:53;10.38;;;3.45;;
39190;SDS011;24916;51.676;6.614;2024-03-25T01:06:20;7.95;;;3.60;;
39190;SDS011;24916;51.676;6.614;2024-03-25T01:08:45;8.38;;;3.80;;
39190;SDS011;24916;51.676;6.614;2024-03-25T01:11:11;8.00;;;3.50;;
39190;SDS011;24916;51.676;6.614;2024-03-25T01:13:36;7.43;;;3.55;;
39190;SDS011;24916;51.676;6.614;2024-03-25T01:16:01;7.45;;;3.30;;
39190;SDS011;24916;51.676;6.614;2024-03-25T01:18:27;8.50;;;3.97;;
39190;SDS011;24916;51.676;6.614;2024-03-25T01:20:52;8.00;;;3.58;;
39190;SDS011;24916;51.676;6.614;2024-03-25T01:23:18;8.63;;;3.67;;
39190;SDS011;24916;51.676;6.614;2024-03-25T01:25:43;7.70;;;3.97;;
39190;SDS011;24916;51.676;6.614;2024-03-25T01:28:08;8.35;;;3.40;;
39190;SDS011;24916;51.676;6.614;2024-03-25T01:30:34;8.02;;;4.13;;
39190;SDS011;24916;51.676;6.614;2024-03-25T01:33:04;7.75;;;3.70;;
39190;SDS011;24916;51.676;6.614;2024-03-25T01:35:30;9.25;;;4.00;;
39190;SDS011;24916;51.676;6.614;2024-03-25T01:37:55;8.15;;;3.90;;
39190;SDS011;24916;51.676;6.614;2024-03-25T01:40:21;8.50;;;4.40;;
39190;SDS011;24916;51.676;6.614;2024-03-25T01:42:56;7.35;;;4.30;;
39190;SDS011;24916;51.676;6.614;2024-03-25T01:45:21;10.98;;;4.50;;
39190;SDS011;24916;51.676;6.614;2024-03-25T01:47:46;7.82;;;4.53;;
39190;SDS011;24916;51.676;6.614;2024-03-25T01:50:12;8.95;;;4.90;;
39190;SDS011;24916;51.676;6.614;2024-03-25T01:52:37;9.80;;;4.80;;
39190;SDS011;24916;51.676;6.614;2024-03-25T01:55:03;9.68;;;5.10;;
39190;SDS011;24916;51.676;6.614;2024-03-25T01:57:30;9.65;;;5.45;;
39190;SDS011;24916;51.676;6.614;2024-03-25T01:59:55;13.88;;;5.88;;
39190;SDS011;24916;51.676;6.614;2024-03-25T02:02:20;8.43;;;5.40;;
39190;SDS011;24916;51.676;6.614;2024-03-25T02:04:46;11.82;;;6.50;;
39190;SDS011;24916;51.676;6.614;2024-03-25T02:07:11;10.77;;;6.20;;
39190;SDS011;24916;51.676;6.614;2024-03-25T02:09:37;10.32;;;6.65;;
39190;SDS011;24916;51.676;6.614;2024-03-25T02:12:03;11.40;;;6.80;;
39190;SDS011;24916;51.676;6.614;2024-03-25T02:14:29;11.13;;;6.45;;
39190;SDS011;24916;51.676;6.614;2024-03-25T02:16:54;11.35;;;7.20;;
39190;SDS011;24916;51.676;6.614;2024-03-25T02:19:22;13.38;;;7.30;;
39190;SDS011;24916;51.676;6.614;2024-03-25T02:21:48;12.27;;;7.22;;
39190;SDS011;24916;51.676;6.614;2024-03-25T02:24:14;11.77;;;7.10;;
39190;SDS011;24916;51.676;6.614;2024-03-25T02:26:40;12.98;;;6.53;;
39190;SDS011;24916;51.676;6.614;2024-03-25T02:29:08;12.30;;;7.30;;
39190;SDS011;24916;51.676;6.614;2024-03-25T02:31:34;10.75;;;6.75;;
39190;SDS011;24916;51.676;6.614;2024-03-25T02:33:59;11.35;;;6.65;;
39190;SDS011;24916;51.676;6.614;2024-03-25T02:36:24;13.25;;;6.93;;
39190;SDS011;24916;51.676;6.614;2024-03-25T02:38:50;10.77;;;6.03;;
39190;SDS011;24916;51.676;6.614;2024-03-25T02:41:15;12.13;;;6.07;;
39190;SDS011;24916;51.676;6.614;2024-03-25T02:43:41;13.40;;;6.28;;
39190;SDS011;24916;51.676;6.614;2024-03-25T02:46:06;13.05;;;6.20;;
39190;SDS011;24916;51.676;6.614;2024-03-25T02:48:31;9.60;;;5.72;;
39190;SDS011;24916;51.676;6.614;2024-03-25T02:50:57;10.60;;;5.88;;
39190;SDS011;24916;51.676;6.614;2024-03-25T02:53:22;10.02;;;5.60;;
39190;SDS011;24916;51.676;6.614;2024-03-25T02:55:49;10.05;;;5.55;;
39190;SDS011;24916;51.676;6.614;2024-03-25T02:58:15;11.02;;;5.65;;
39190;SDS011;24916;51.676;6.614;2024-03-25T03:00:40;10.80;;;5.18;;
39190;SDS011;24916;51.676;6.614;2024-03-25T03:03:05;10.68;;;5.55;;
39190;SDS011;24916;51.676;6.614;2024-03-25T03:05:31;11.07;;;5.03;;
39190;SDS011;24916;51.676;6.614;2024-03-25T03:07:56;11.95;;;5.00;;
39190;SDS011;24916;51.676;6.614;2024-03-25T03:10:21;11.00;;;5.32;;
39190;SDS011;24916;51.676;6.614;2024-03-25T03:12:47;8.93;;;4.72;;
39190;SDS011;24916;51.676;6.614;2024-03-25T03:15:12;10.88;;;5.25;;
39190;SDS011;24916;51.676;6.614;2024-03-25T03:17:37;9.95;;;4.57;;
39190;SDS011;24916;51.676;6.614;2024-03-25T03:20:03;9.82;;;4.72;;
39190;SDS011;24916;51.676;6.614;2024-03-25T03:22:28;8.95;;;4.72;;
39190;SDS011;24916;51.676;6.614;2024-03-25T03:24:54;9.15;;;4.65;;
39190;SDS011;24916;51.676;6.614;2024-03-25T03:27:19;9.80;;;4.63;;
39190;SDS011;24916;51.676;6.614;2024-03-25T03:29:44;9.82;;;4.63;;
39190;SDS011;24916;51.676;6.614;2024-03-25T03:32:10;9.30;;;4.75;;
39190;SDS011;24916;51.676;6.614;2024-03-25T03:34:37;11.55;;;5.13;;
39190;SDS011;24916;51.676;6.614;2024-03-25T03:37:02;10.57;;;4.75;;
39190;SDS011;24916;51.676;6.614;2024-03-25T03:39:27;9.68;;;4.70;;
39190;SDS011;24916;51.676;6.614;2024-03-25T03:41:53;9.57;;;4.60;;
39190;SDS011;24916;51.676;6.614;2024-03-25T03:44:18;11.88;;;4.80;;
39190;SDS011;24916;51.676;6.614;2024-03-25T03:46:43;11.35;;;4.95;;
39190;SDS011;24916;51.676;6.614;2024-03-25T03:49:09;9.55;;;4.53;;
39190;SDS011;24916;51.676;6.614;2024-03-25T03:51:34;8.15;;;4.30;;
39190;SDS011;24916;51.676;6.614;2024-03-25T03:53:59;9.65;;;4.97;;
39190;SDS011;24916;51.676;6.614;2024-03-25T03:56:25;8.55;;;4.50;;
39190;SDS011;24916;51.676;6.614;2024-03-25T03:58:50;8.25;;;4.05;;
39190;SDS011;24916;51.676;6.614;2024-03-25T04:01:16;8.88;;;4.25;;
39190;SDS011;24916;51.676;6.614;2024-03-25T04:03:41;11.30;;;4.57;;
39190;SDS011;24916;51.676;6.614;2024-03-25T04:06:07;8.32;;;4.35;;
39190;SDS011;24916;51.676;6.614;2024-03-25T04:08:33;10.50;;;4.57;;
39190;SDS011;24916;51.676;6.614;2024-03-25T04:11:00;8.25;;;4.38;;
39190;SDS011;24916;51.676;6.614;2024-03-25T04:13:26;8.20;;;4.28;;
39190;SDS011;24916;51.676;6.614;2024-03-25T04:15:51;8.55;;;3.95;;
39190;SDS011;24916;51.676;6.614;2024-03-25T04:18:19;8.63;;;4.32;;
39190;SDS011;24916;51.676;6.614;2024-03-25T04:20:44;8.85;;;4.13;;
39190;SDS011;24916;51.676;6.614;2024-03-25T04:23:09;10.20;;;4.53;;
39190;SDS011;24916;51.676;6.614;2024-03-25T04:25:35;8.85;;;4.50;;
39190;SDS011;24916;51.676;6.614;2024-03-25T04:28:02;8.95;;;3.92;;
39190;SDS011;24916;51.676;6.614;2024-03-25T04:30:28;8.73;;;4.38;;
39190;SDS011;24916;51.676;6.614;2024-03-25T04:32:53;9.68;;;4.60;;
39190;SDS011;24916;51.676;6.614;2024-03-25T04:35:19;8.65;;;4.13;;
39190;SDS011;24916;51.676;6.614;2024-03-25T04:37:44;8.82;;;4.30;;
39190;SDS011;24916;51.676;6.614;2024-03-25T04:40:10;7.82;;;3.55;;
39190;SDS011;24916;51.676;6.614;2024-03-25T04:42:35;10.13;;;4.80;;
39190;SDS011;24916;51.676;6.614;2024-03-25T04:45:01;8.10;;;4.28;;
39190;SDS011;24916;51.676;6.614;2024-03-25T04:47:26;8.45;;;4.13;;
39190;SDS011;24916;51.676;6.614;2024-03-25T04:49:52;7.93;;;4.07;;
39190;SDS011;24916;51.676;6.614;2024-03-25T04:52:17;8.50;;;4.28;;
39190;SDS011;24916;51.676;6.614;2024-03-25T04:54:47;9.15;;;4.10;;
39190;SDS011;24916;51.676;6.614;2024-03-25T04:57:13;7.93;;;3.80;;
39190;SDS011;24916;51.676;6.614;2024-03-25T04:59:38;9.13;;;4.55;;
39190;SDS011;24916;51.676;6.614;2024-03-25T05:02:04;9.82;;;4.35;;
39190;SDS011;24916;51.676;6.614;2024-03-25T05:04:29;9.63;;;4.30;;
39190;SDS011;24916;51.676;6.614;2024-03-25T05:06:54;8.20;;;4.13;;
39190;SDS011;24916;51.676;6.614;2024-03-25T05:09:20;7.40;;;3.42;;
39190;SDS011;24916;51.676;6.614;2024-03-25T05:11:45;9.35;;;4.03;;
39190;SDS011;24916;51.676;6.614;2024-03-25T05:14:10;7.57;;;3.70;;
39190;SDS011;24916;51.676;6.614;2024-03-25T05:16:36;8.60;;;4.10;;
39190;SDS011;24916;51.676;6.614;2024-03-25T05:19:04;8.38;;;4.35;;
39190;SDS011;24916;51.676;6.614;2024-03-25T05:21:32;7.28;;;3.65;;
39190;SDS011;24916;51.676;6.614;2024-03-25T05:23:58;8.43;;;3.70;;
39190;SDS011;24916;51.676;6.614;2024-03-25T05:26:24;9.25;;;4.25;;
39190;SDS011;24916;51.676;6.614;2024-03-25T05:28:53;7.80;;;3.75;;
39190;SDS011;24916;51.676;6.614;2024-03-25T05:31:21;9.20;;;4.18;;
39190;SDS011;24916;51.676;6.614;2024-03-25T05:33:46;8.98;;;3.92;;
39190;SDS011;24916;51.676;6.614;2024-03-25T05:36:12;10.52;;;4.38;;
39190;SDS011;24916;51.676;6.614;2024-03-25T05:38:37;7.90;;;4.07;;
39190;SDS011;24916;51.676;6.614;2024-03-25T05:41:03;8.73;;;3.90;;
39190;SDS011;24916;51.676;6.614;2024-03-25T05:43:28;7.95;;;4.05;;
39190;SDS011;24916;51.676;6.614;2024-03-25T05:45:54;9.25;;;3.97;;
39190;SDS011;24916;51.676;6.614;2024-03-25T05:48:21;10.75;;;4.38;;
39190;SDS011;24916;51.676;6.614;2024-03-25T05:53:42;8.65;;;4.00;;
39190;SDS011;24916;51.676;6.614;2024-03-25T05:56:07;8.50;;;3.80;;
39190;SDS011;24916;51.676;6.614;2024-03-25T05:58:32;8.73;;;4.03;;
39190;SDS011;24916;51.676;6.614;2024-03-25T06:00:58;7.30;;;3.45;;
39190;SDS011;24916;51.676;6.614;2024-03-25T06:03:26;9.00;;;4.05;;
39190;SDS011;24916;51.676;6.614;2024-03-25T06:05:51;8.70;;;4.10;;
39190;SDS011;24916;51.676;6.614;2024-03-25T06:08:16;8.73;;;3.78;;
39190;SDS011;24916;51.676;6.614;2024-03-25T06:10:51;12.00;;;4.35;;
39190;SDS011;24916;51.676;6.614;2024-03-25T06:13:17;9.73;;;3.92;;
39190;SDS011;24916;51.676;6.614;2024-03-25T06:15:42;10.10;;;4.53;;
39190;SDS011;24916;51.676;6.614;2024-03-25T06:18:07;10.20;;;4.10;;
39190;SDS011;24916;51.676;6.614;2024-03-25T06:20:33;10.18;;;4.07;;
39190;SDS011;24916;51.676;6.614;2024-03-25T06:22:58;16.15;;;4.50;;
39190;SDS011;24916;51.676;6.614;2024-03-25T06:25:24;11.38;;;4.78;;
39190;SDS011;24916;51.676;6.614;2024-03-25T06:27:49;11.40;;;4.20;;
39190;SDS011;24916;51.676;6.614;2024-03-25T06:30:14;11.48;;;4.53;;
39190;SDS011;24916;51.676;6.614;2024-03-25T06:32:58;9.55;;;4.20;;
39190;SDS011;24916;51.676;6.614;2024-03-25T06:35:42;10.85;;;4.60;;
39190;SDS011;24916;51.676;6.614;2024-03-25T06:38:08;12.98;;;4.25;;
39190;SDS011;24916;51.676;6.614;2024-03-25T06:40:34;10.50;;;4.30;;
39190;SDS011;24916;51.676;6.614;2024-03-25T06:43:03;9.93;;;3.90;;
39190;SDS011;24916;51.676;6.614;2024-03-25T06:45:28;9.02;;;4.43;;
39190;SDS011;24916;51.676;6.614;2024-03-25T06:47:54;7.85;;;3.90;;
39190;SDS011;24916;51.676;6.614;2024-03-25T06:50:19;12.63;;;6.25;;
39190;SDS011;24916;51.676;6.614;2024-03-25T06:52:45;15.98;;;9.70;;
39190;SDS011;24916;51.676;6.614;2024-03-25T06:55:10;15.00;;;9.05;;
39190;SDS011;24916;51.676;6.614;2024-03-25T06:57:35;15.15;;;8.80;;
39190;SDS011;24916;51.676;6.614;2024-03-25T07:00:01;12.82;;;7.50;;
39190;SDS011;24916;51.676;6.614;2024-03-25T07:02:26;15.13;;;6.68;;
39190;SDS011;24916;51.676;6.614;2024-03-25T07:04:52;16.33;;;5.85;;
39190;SDS011;24916;51.676;6.614;2024-03-25T07:07:17;14.73;;;5.50;;
39190;SDS011;24916;51.676;6.614;2024-03-25T07:09:44;16.48;;;5.70;;
39190;SDS011;24916;51.676;6.614;2024-03-25T07:12:09;14.18;;;6.45;;
39190;SDS011;24916;51.676;6.614;2024-03-25T07:14:34;17.10;;;9.20;;
39190;SDS011;24916;51.676;6.614;2024-03-25T07:17:00;21.55;;;11.90;;
39190;SDS011;24916;51.676;6.614;2024-03-25T07:19:25;19.02;;;11.98;;
39190;SDS011;24916;51.676;6.614;2024-03-25T07:21:51;17.20;;;10.27;;
39190;SDS011;24916;51.676;6.614;2024-03-25T07:24:16;14.95;;;8.38;;
39190;SDS011;24916;51.676;6.614;2024-03-25T07:26:41;16.30;;;7.50;;
39190;SDS011;24916;51.676;6.614;2024-03-25T07:29:09;16.35;;;6.18;;
39190;SDS011;24916;51.676;6.614;2024-03-25T07:31:34;14.02;;;5.65;;
39190;SDS011;24916;51.676;6.614;2024-03-25T07:34:00;12.27;;;5.35;;
39190;SDS011;24916;51.676;6.614;2024-03-25T07:36:25;16.35;;;5.47;;
39190;SDS011;24916;51.676;6.614;2024-03-25T07:38:50;13.73;;;4.85;;
39190;SDS011;24916;51.676;6.614;2024-03-25T07:41:16;13.65;;;4.60;;
39190;SDS011;24916;51.676;6.614;2024-03-25T07:43:41;11.57;;;5.50;;
39190;SDS011;24916;51.676;6.614;2024-03-25T07:46:07;10.02;;;4.38;;
39190;SDS011;24916;51.676;6.614;2024-03-25T07:48:32;15.70;;;4.97;;
39190;SDS011;24916;51.676;6.614;2024-03-25T07:50:57;13.90;;;4.95;;
39190;SDS011;24916;51.676;6.614;2024-03-25T07:53:22;12.43;;;6.20;;
39190;SDS011;24916;51.676;6.614;2024-03-25T07:55:47;13.63;;;6.07;;
39190;SDS011;24916;51.676;6.614;2024-03-25T07:58:13;15.18;;;5.90;;
39190;SDS011;24916;51.676;6.614;2024-03-25T08:00:38;13.30;;;5.45;;
39190;SDS011;24916;51.676;6.614;2024-03-25T08:03:03;12.93;;;5.70;;
39190;SDS011;24916;51.676;6.614;2024-03-25T08:05:29;13.68;;;5.28;;
39190;SDS011;24916;51.676;6.614;2024-03-25T08:07:55;17.02;;;5.78;;
39190;SDS011;24916;51.676;6.614;2024-03-25T08:10:20;18.92;;;6.15;;
39190;SDS011;24916;51.676;6.614;2024-03-25T08:12:45;17.67;;;6.28;;
39190;SDS011;24916;51.676;6.614;2024-03-25T08:15:11;17.63;;;5.95;;
39190;SDS011;24916;51.676;6.614;2024-03-25T08:17:36;15.25;;;5.32;;
39190;SDS011;24916;51.676;6.614;2024-03-25T08:20:01;12.05;;;4.63;;
39190;SDS011;24916;51.676;6.614;2024-03-25T08:22:27;13.88;;;5.38;;
39190;SDS011;24916;51.676;6.614;2024-03-25T08:24:53;14.88;;;5.63;;
39190;SDS011;24916;51.676;6.614;2024-03-25T08:27:18;14.95;;;5.68;;
39190;SDS011;24916;51.676;6.614;2024-03-25T08:29:43;13.77;;;5.32;;
39190;SDS011;24916;51.676;6.614;2024-03-25T08:32:08;16.27;;;5.80;;
39190;SDS011;24916;51.676;6.614;2024-03-25T08:34:33;13.30;;;5.73;;
39190;SDS011;24916;51.676;6.614;2024-03-25T08:36:59;15.05;;;5.90;;
39190;SDS011;24916;51.676;6.614;2024-03-25T08:39:24;14.17;;;5.53;;
39190;SDS011;24916;51.676;6.614;2024-03-25T08:41:49;14.88;;;5.47;;
39190;SDS011;24916;51.676;6.614;2024-03-25T08:44:14;13.48;;;5.95;;
39190;SDS011;24916;51.676;6.614;2024-03-25T08:46:40;13.32;;;5.22;;
39190;SDS011;24916;51.676;6.614;2024-03-25T08:49:05;14.40;;;4.97;;
39190;SDS011;24916;51.676;6.614;2024-03-25T08:51:30;15.43;;;5.45;;
39190;SDS011;24916;51.676;6.614;2024-03-25T08:53:55;12.85;;;5.18;;
39190;SDS011;24916;51.676;6.614;2024-03-25T08:56:21;12.20;;;4.85;;
39190;SDS011;24916;51.676;6.614;2024-03-25T08:58:46;10.60;;;4.30;;
39190;SDS011;24916;51.676;6.614;2024-03-25T09:01:11;12.68;;;4.65;;
39190;SDS011;24916;51.676;6.614;2024-03-25T09:03:39;14.20;;;4.70;;
39190;SDS011;24916;51.676;6.614;2024-03-25T09:06:04;9.93;;;3.92;;
39190;SDS011;24916;51.676;6.614;2024-03-25T09:08:29;9.10;;;3.95;;
39190;SDS011;24916;51.676;6.614;2024-03-25T09:11:01;8.18;;;3.45;;
39190;SDS011;24916;51.676;6.614;2024-03-25T09:13:32;11.55;;;3.95;;
39190;SDS011;24916;51.676;6.614;2024-03-25T09:15:57;8.02;;;3.47;;
39190;SDS011;24916;51.676;6.614;2024-03-25T09:18:23;9.07;;;3.65;;
39190;SDS011;24916;51.676;6.614;2024-03-25T09:20:48;8.02;;;3.75;;
39190;SDS011;24916;51.676;6.614;2024-03-25T09:23:13;7.95;;;3.80;;
39190;SDS011;24916;51.676;6.614;2024-03-25T09:25:38;7.18;;;3.42;;
39190;SDS011;24916;51.676;6.614;2024-03-25T09:28:04;7.22;;;3.28;;
39190;SDS011;24916;51.676;6.614;2024-03-25T09:30:29;8.32;;;3.58;;
39190;SDS011;24916;51.676;6.614;2024-03-25T09:32:54;6.82;;;3.30;;
39190;SDS011;24916;51.676;6.614;2024-03-25T09:35:19;8.70;;;3.40;;
39190;SDS011;24916;51.676;6.614;2024-03-25T09:37:45;7.35;;;3.58;;
39190;SDS011;24916;51.676;6.614;2024-03-25T09:40:10;6.53;;;3.17;;
39190;SDS011;24916;51.676;6.614;2024-03-25T09:45:04;6.38;;;3.03;;
39190;SDS011;24916;51.676;6.614;2024-03-25T09:47:31;6.05;;;2.88;;
39190;SDS011;24916;51.676;6.614;2024-03-25T09:49:57;7.38;;;2.95;;
39190;SDS011;24916;51.676;6.614;2024-03-25T09:52:23;6.60;;;2.75;;
39190;SDS011;24916;51.676;6.614;2024-03-25T09:54:48;7.95;;;3.20;;
39190;SDS011;24916;51.676;6.614;2024-03-25T09:57:14;6.80;;;2.92;;
39190;SDS011;24916;51.676;6.614;2024-03-25T09:59:39;6.82;;;2.92;;
39190;SDS011;24916;51.676;6.614;2024-03-25T10:02:04;7.43;;;2.90;;
39190;SDS011;24916;51.676;6.614;2024-03-25T10:04:30;5.70;;;2.72;;
39190;SDS011;24916;51.676;6.614;2024-03-25T10:06:55;6.63;;;2.78;;
39190;SDS011;24916;51.676;6.614;2024-03-25T10:09:21;6.72;;;2.42;;
39190;SDS011;24916;51.676;6.614;2024-03-25T10:11:49;5.50;;;2.53;;
39190;SDS011;24916;51.676;6.614;2024-03-25T10:14:17;5.72;;;2.78;;
39190;SDS011;24916;51.676;6.614;2024-03-25T10:16:48;5.00;;;2.40;;
39190;SDS011;24916;51.676;6.614;2024-03-25T10:19:14;6.05;;;2.58;;
39190;SDS011;24916;51.676;6.614;2024-03-25T10:21:39;6.93;;;2.60;;
39190;SDS011;24916;51.676;6.614;2024-03-25T10:24:04;4.93;;;2.50;;
39190;SDS011;24916;51.676;6.614;2024-03-25T10:26:31;6.13;;;2.47;;
39190;SDS011;24916;51.676;6.614;2024-03-25T10:29:03;8.15;;;2.90;;
39190;SDS011;24916;51.676;6.614;2024-03-25T10:31:29;8.50;;;3.85;;
39190;SDS011;24916;51.676;6.614;2024-03-25T10:33:54;11.55;;;5.13;;
39190;SDS011;24916;51.676;6.614;2024-03-25T10:36:21;10.27;;;3.92;;
39190;SDS011;24916;51.676;6.614;2024-03-25T10:38:46;12.65;;;4.70;;
39190;SDS011;24916;51.676;6.614;2024-03-25T10:41:13;11.50;;;4.18;;
39190;SDS011;24916;51.676;6.614;2024-03-25T10:43:42;11.07;;;3.92;;
39190;SDS011;24916;51.676;6.614;2024-03-25T10:46:08;11.88;;;4.10;;
39190;SDS011;24916;51.676;6.614;2024-03-25T10:48:36;11.52;;;3.28;;
39190;SDS011;24916;51.676;6.614;2024-03-25T10:51:02;11.05;;;3.67;;
39190;SDS011;24916;51.676;6.614;2024-03-25T10:53:28;8.68;;;3.10;;
39190;SDS011;24916;51.676;6.614;2024-03-25T10:55:54;11.43;;;3.80;;
39190;SDS011;24916;51.676;6.614;2024-03-25T10:58:21;9.13;;;3.60;;
39190;SDS011;24916;51.676;6.614;2024-03-25T11:00:46;9.65;;;3.40;;
39190;SDS011;24916;51.676;6.614;2024-03-25T11:03:13;7.63;;;2.88;;
39190;SDS011;24916;51.676;6.614;2024-03-25T11:05:38;8.25;;;3.40;;
39190;SDS011;24916;51.676;6.614;2024-03-25T11:08:13;8.88;;;3.13;;
39190;SDS011;24916;51.676;6.614;2024-03-25T11:10:45;7.55;;;3.03;;
39190;SDS011;24916;51.676;6.614;2024-03-25T11:13:14;9.40;;;3.53;;
39190;SDS011;24916;51.676;6.614;2024-03-25T11:15:42;8.23;;;3.10;;
39190;SDS011;24916;51.676;6.614;2024-03-25T11:18:11;8.55;;;3.00;;
39190;SDS011;24916;51.676;6.614;2024-03-25T11:20:36;7.45;;;2.92;;
39190;SDS011;24916;51.676;6.614;2024-03-25T11:23:07;8.20;;;3.05;;
39190;SDS011;24916;51.676;6.614;2024-03-25T11:25:33;12.30;;;2.83;;
39190;SDS011;24916;51.676;6.614;2024-03-25T11:27:58;8.73;;;3.28;;
39190;SDS011;24916;51.676;6.614;2024-03-25T11:30:23;7.35;;;2.90;;
39190;SDS011;24916;51.676;6.614;2024-03-25T11:32:52;8.80;;;3.33;;
39190;SDS011;24916;51.676;6.614;2024-03-25T11:35:17;6.90;;;2.78;;
39190;SDS011;24916;51.676;6.614;2024-03-25T11:37:43;7.60;;;3.08;;
39190;SDS011;24916;51.676;6.614;2024-03-25T11:40:09;8.15;;;3.00;;
39190;SDS011;24916;51.676;6.614;2024-03-25T11:42:37;8.43;;;3.08;;
39190;SDS011;24916;51.676;6.614;2024-03-25T11:45:03;9.93;;;2.90;;
39190;SDS011;24916;51.676;6.614;2024-03-25T11:47:30;8.02;;;3.10;;
39190;SDS011;24916;51.676;6.614;2024-03-25T11:49:55;6.65;;;2.90;;
39190;SDS011;24916;51.676;6.614;2024-03-25T11:52:21;7.05;;;3.13;;
39190;SDS011;24916;51.676;6.614;2024-03-25T11:54:53;7.75;;;3.72;;
39190;SDS011;24916;51.676;6.614;2024-03-25T11:57:18;9.05;;;4.55;;
39190;SDS011;24916;51.676;6.614;2024-03-25T11:59:44;10.40;;;4.53;;
39190;SDS011;24916;51.676;6.614;2024-03-25T12:02:09;8.88;;;4.32;;
39190;SDS011;24916;51.676;6.614;2024-03-25T12:04:34;10.07;;;4.63;;
39190;SDS011;24916;51.676;6.614;2024-03-25T12:06:59;9.55;;;4.22;;
39190;SDS011;24916;51.676;6.614;2024-03-25T12:09:25;7.90;;;3.45;;
39190;SDS011;24916;51.676;6.614;2024-03-25T12:12:08;6.55;;;3.75;;
39190;SDS011;24916;51.676;6.614;2024-03-25T12:14:34;6.70;;;3.08;;
39190;SDS011;24916;51.676;6.614;2024-03-25T12:16:59;6.95;;;2.92;;
39190;SDS011;24916;51.676;6.614;2024-03-25T12:19:25;7.00;;;3.40;;
39190;SDS011;24916;51.676;6.614;2024-03-25T12:21:50;7.15;;;2.80;;
39190;SDS011;24916;51.676;6.614;2024-03-25T12:24:15;6.40;;;2.80;;
39190;SDS011;24916;51.676;6.614;2024-03-25T12:26:41;7.25;;;2.50;;
39190;SDS011;24916;51.676;6.614;2024-03-25T12:29:06;8.43;;;2.60;;
39190;SDS011;24916;51.676;6.614;2024-03-25T12:31:32;6.72;;;3.05;;
39190;SDS011;24916;51.676;6.614;2024-03-25T12:33:57;5.68;;;2.42;;
39190;SDS011;24916;51.676;6.614;2024-03-25T12:36:23;5.63;;;2.70;;
39190;SDS011;24916;51.676;6.614;2024-03-25T12:38:55;6.55;;;2.70;;
39190;SDS011;24916;51.676;6.614;2024-03-25T12:41:21;7.47;;;2.58;;
39190;SDS011;24916;51.676;6.614;2024-03-25T12:43:47;5.95;;;2.50;;
39190;SDS011;24916;51.676;6.614;2024-03-25T12:46:12;4.78;;;2.20;;
39190;SDS011;24916;51.676;6.614;2024-03-25T12:48:38;5.93;;;2.38;;
39190;SDS011;24916;51.676;6.614;2024-03-25T12:51:03;5.53;;;2.70;;
39190;SDS011;24916;51.676;6.614;2024-03-25T12:53:29;6.60;;;2.38;;
39190;SDS011;24916;51.676;6.614;2024-03-25T12:55:55;7.10;;;2.10;;
39190;SDS011;24916;51.676;6.614;2024-03-25T12:58:20;5.65;;;2.03;;
39190;SDS011;24916;51.676;6.614;2024-03-25T13:00:48;5.68;;;2.40;;
39190;SDS011;24916;51.676;6.614;2024-03-25T13:03:13;6.15;;;2.60;;
39190;SDS011;24916;51.676;6.614;2024-03-25T13:05:39;6.07;;;2.72;;
39190;SDS011;24916;51.676;6.614;2024-03-25T13:08:04;6.75;;;2.42;;
39190;SDS011;24916;51.676;6.614;2024-03-25T13:10:29;6.00;;;2.30;;
39190;SDS011;24916;51.676;6.614;2024-03-25T13:12:55;5.75;;;2.20;;
39190;SDS011;24916;51.676;6.614;2024-03-25T13:15:20;5.60;;;2.35;;
39190;SDS011;24916;51.676;6.614;2024-03-25T13:17:46;4.25;;;1.95;;
39190;SDS011;24916;51.676;6.614;2024-03-25T13:20:12;4.68;;;1.92;;
39190;SDS011;24916;51.676;6.614;2024-03-25T13:22:37;4.05;;;2.03;;
39190;SDS011;24916;51.676;6.614;2024-03-25T13:25:03;3.63;;;1.95;;
39190;SDS011;24916;51.676;6.614;2024-03-25T13:27:28;4.93;;;2.17;;
39190;SDS011;24916;51.676;6.614;2024-03-25T13:29:54;8.48;;;2.50;;
39190;SDS011;24916;51.676;6.614;2024-03-25T13:32:19;5.90;;;2.45;;
39190;SDS011;24916;51.676;6.614;2024-03-25T13:34:45;5.93;;;2.08;;
39190;SDS011;24916;51.676;6.614;2024-03-25T13:37:11;5.57;;;2.40;;
39190;SDS011;24916;51.676;6.614;2024-03-25T13:39:36;5.38;;;2.10;;
39190;SDS011;24916;51.676;6.614;2024-03-25T13:42:04;7.25;;;2.05;;
39190;SDS011;24916;51.676;6.614;2024-03-25T13:44:30;5.43;;;1.90;;
39190;SDS011;24916;51.676;6.614;2024-03-25T13:46:55;4.45;;;1.80;;
39190;SDS011;24916;51.676;6.614;2024-03-25T13:49:20;4.82;;;1.88;;
39190;SDS011;24916;51.676;6.614;2024-03-25T13:51:47;4.80;;;1.90;;
39190;SDS011;24916;51.676;6.614;2024-03-25T13:54:13;3.38;;;1.77;;
39190;SDS011;24916;51.676;6.614;2024-03-25T13:56:38;6.53;;;2.40;;
39190;SDS011;24916;51.676;6.614;2024-03-25T13:59:03;4.60;;;2.00;;
39190;SDS011;24916;51.676;6.614;2024-03-25T14:01:28;4.63;;;2.08;;
39190;SDS011;24916;51.676;6.614;2024-03-25T14:03:54;5.00;;;2.10;;
39190;SDS011;24916;51.676;6.614;2024-03-25T14:06:19;7.05;;;2.40;;
39190;SDS011;24916;51.676;6.614;2024-03-25T14:08:44;4.78;;;2.00;;
39190;SDS011;24916;51.676;6.614;2024-03-25T14:11:10;5.70;;;2.17;;
39190;SDS011;24916;51.676;6.614;2024-03-25T14:13:35;4.78;;;1.88;;
39190;SDS011;24916;51.676;6.614;2024-03-25T14:16:01;5.88;;;2.15;;
39190;SDS011;24916;51.676;6.614;2024-03-25T14:18:26;3.72;;;1.80;;
39190;SDS011;24916;51.676;6.614;2024-03-25T14:20:52;6.50;;;2.30;;
39190;SDS011;24916;51.676;6.614;2024-03-25T14:23:17;4.10;;;2.00;;
39190;SDS011;24916;51.676;6.614;2024-03-25T14:25:42;4.20;;;1.77;;
39190;SDS011;24916;51.676;6.614;2024-03-25T14:28:07;5.68;;;1.92;;
39190;SDS011;24916;51.676;6.614;2024-03-25T14:30:33;10.52;;;2.20;;
39190;SDS011;24916;51.676;6.614;2024-03-25T14:32:58;5.13;;;1.90;;
39190;SDS011;24916;51.676;6.614;2024-03-25T14:35:24;5.28;;;2.30;;
39190;SDS011;24916;51.676;6.614;2024-03-25T14:37:49;3.65;;;1.60;;
39190;SDS011;24916;51.676;6.614;2024-03-25T14:40:14;5.72;;;2.30;;